createdAt,value
2022-11-16T00:02:06.580Z,99762.56
2022-11-16T00:04:33.040Z,99764.28
2022-11-16T00:06:59.645Z,99768.69
2022-11-16T00:09:28.683Z,99763.31
2022-11-16T00:12:00.910Z,99766.97
2022-11-16T00:14:32.762Z,99766.25
2022-11-16T00:16:59.840Z,99769.94
2022-11-16T00:19:26.749Z,99761.97
2022-11-16T00:21:53.818Z,99771.91
2022-11-16T00:24:22.152Z,99762.06
2022-11-16T00:26:48.871Z,99766.75
2022-11-16T00:29:17.876Z,99765.16
2022-11-16T00:31:45.337Z,99761.63
2022-11-16T00:34:12.184Z,99756.22
2022-11-16T00:36:38.655Z,99754.47
2022-11-16T00:39:05.199Z,99754.47
2022-11-16T00:41:31.557Z,99762.59
2022-11-16T00:43:57.947Z,99746.50
2022-11-16T00:46:24.276Z,99753.63
2022-11-16T00:48:50.638Z,99749.09
2022-11-16T00:51:16.989Z,99749.09
2022-11-16T00:53:43.373Z,99749.94
2022-11-16T00:56:09.719Z,99749.09
2022-11-16T00:58:36.673Z,99747.13
2022-11-16T01:01:05.840Z,99752.50
2022-11-16T01:03:32.920Z,99747.13
2022-11-16T01:06:07.803Z,99732.66
2022-11-16T01:08:36.584Z,99738.03
2022-11-16T01:11:22.242Z,99728.09
2022-11-16T01:13:48.794Z,99731.66
2022-11-16T01:16:16.668Z,99730.69
2022-11-16T01:18:44.198Z,99727.81
2022-11-16T01:21:10.541Z,99730.69
2022-11-16T01:23:36.938Z,99726.00
2022-11-16T01:26:03.365Z,99724.16
2022-11-16T01:28:31.446Z,99724.88
2022-11-16T01:30:58.596Z,99721.34
2022-11-16T01:33:24.972Z,99716.78
2022-11-16T01:35:51.361Z,99717.78
2022-11-16T01:38:18.025Z,99718.63
2022-11-16T01:40:44.930Z,99718.63
2022-11-16T01:43:17.936Z,99705.13
2022-11-16T01:45:45.573Z,99710.41
2022-11-16T01:48:16.224Z,99702.31
2022-11-16T01:50:43.862Z,99701.44
2022-11-16T01:53:11.707Z,99701.44
2022-11-16T01:55:40.192Z,99706.84
2022-11-16T01:58:07.182Z,99713.22
2022-11-16T02:00:33.897Z,99707.84
2022-11-16T02:03:00.220Z,99708.81
2022-11-16T02:05:48.212Z,99707.56
2022-11-16T02:09:06.719Z,99704.84
2022-11-16T02:11:46.541Z,99699.47
2022-11-16T02:14:29.858Z,99701.31
2022-11-16T02:17:05.336Z,99712.97
2022-11-16T02:19:53.990Z,99713.69
2022-11-16T02:22:57.570Z,99726.22
2022-11-16T02:25:38.904Z,99718.63
2022-11-16T02:28:14.851Z,99731.53
2022-11-16T02:30:46.847Z,99729.06
2022-11-16T02:33:17.927Z,99730.34
2022-11-16T02:35:50.371Z,99731.47
2022-11-16T02:38:24.362Z,99724.13
2022-11-16T02:40:54.868Z,99714.81
2022-11-16T02:43:29.992Z,99717.72
2022-11-16T02:46:01.012Z,99713.56
2022-11-16T02:48:33.518Z,99706.47
2022-11-16T02:51:00.063Z,99713.09
2022-11-16T02:53:27.238Z,99707.69
2022-11-16T02:55:53.831Z,99709.66
2022-11-16T02:58:23.783Z,99710.75
2022-11-16T03:01:01.800Z,99716.28
2022-11-16T03:03:40.539Z,99713.69
2022-11-16T03:06:31.388Z,99712.84
2022-11-16T03:09:06.669Z,99716.50
2022-11-16T03:11:55.247Z,99713.06
2022-11-16T03:14:26.717Z,99719.47
2022-11-16T03:16:58.834Z,99715.03
2022-11-16T03:19:41.541Z,99712.44
2022-11-16T03:22:18.471Z,99719.56
2022-11-16T03:24:45.187Z,99727.56
2022-11-16T03:27:27.492Z,99722.16
2022-11-16T03:30:02.324Z,99720.44
2022-11-16T03:32:35.655Z,99706.22
2022-11-16T03:35:08.257Z,99709.88
2022-11-16T03:37:36.343Z,99714.53
2022-11-16T03:40:04.903Z,99721.75
2022-11-16T03:42:32.905Z,99710.97
2022-11-16T03:45:00.289Z,99717.22
2022-11-16T03:47:26.716Z,99716.25
2022-11-16T03:49:53.064Z,99715.25
2022-11-16T03:52:19.721Z,99708.16
2022-11-16T03:54:46.135Z,99715.25
2022-11-16T03:57:15.603Z,99708.91
2022-11-16T03:59:45.846Z,99711.59
2022-11-16T04:02:12.844Z,99710.75
2022-11-16T04:04:57.942Z,99704.63
2022-11-16T04:07:42.562Z,99703.88
2022-11-16T04:10:28.426Z,99698.50
2022-11-16T04:13:13.770Z,99696.75
2022-11-16T04:15:58.480Z,99701.31
2022-11-16T04:18:43.339Z,99696.88
2022-11-16T04:21:41.285Z,99707.66
2022-11-16T04:24:19.177Z,99710.63
2022-11-16T04:27:09.596Z,99706.31
2022-11-16T04:29:36.363Z,99711.72
2022-11-16T04:32:21.778Z,99710.84
2022-11-16T04:35:06.595Z,99708.41
2022-11-16T04:37:52.639Z,99712.78
2022-11-16T04:40:21.494Z,99718.28
2022-11-16T04:42:59.366Z,99715.59
2022-11-16T04:45:45.993Z,99728.22
2022-11-16T04:48:13.765Z,99733.63
2022-11-16T04:50:41.036Z,99725.66
2022-11-16T04:53:08.073Z,99732.03
2022-11-16T04:55:35.018Z,99729.22
2022-11-16T04:58:02.005Z,99740.75
2022-11-16T05:00:29.284Z,99734.63
2022-11-16T05:03:01.085Z,99735.22
2022-11-16T05:05:28.263Z,99741.47
2022-11-16T05:07:54.744Z,99746.13
2022-11-16T05:10:21.383Z,99741.69
2022-11-16T05:12:47.735Z,99744.41
2022-11-16T05:15:14.163Z,99740.97
2022-11-16T05:17:40.587Z,99740.97
2022-11-16T05:20:26.463Z,99739.25
2022-11-16T05:22:57.352Z,99734.22
2022-11-16T05:25:23.871Z,99737.91
2022-11-16T05:27:50.219Z,99734.56
2022-11-16T05:30:16.982Z,99731.03
2022-11-16T05:32:43.623Z,99734.06
2022-11-16T05:35:10.075Z,99743.97
2022-11-16T05:37:36.434Z,99745.09
2022-11-16T05:40:03.011Z,99740.81
2022-11-16T05:42:29.369Z,99743.34
2022-11-16T05:44:55.772Z,99747.25
2022-11-16T05:47:22.175Z,99745.31
2022-11-16T05:49:48.502Z,99739.91
2022-11-16T05:52:14.869Z,99741.88
2022-11-16T05:54:41.233Z,99737.47
2022-11-16T05:57:07.577Z,99741.03
2022-11-16T05:59:34.030Z,99745.44
2022-11-16T06:02:00.477Z,99750.06
2022-11-16T06:04:27.433Z,99741.03
2022-11-16T06:06:53.858Z,99746.78
2022-11-16T06:09:20.367Z,99746.03
2022-11-16T06:11:46.749Z,99738.16
2022-11-16T06:14:13.104Z,99749.94
2022-11-16T06:16:39.450Z,99750.78
2022-11-16T06:19:05.949Z,99746.25
2022-11-16T06:21:33.002Z,99750.91
2022-11-16T06:23:59.424Z,99759.72
2022-11-16T06:26:25.786Z,99759.72
2022-11-16T06:28:54.805Z,99762.66
2022-11-16T06:31:21.215Z,99757.28
2022-11-16T06:33:47.606Z,99764.63
2022-11-16T06:36:14.001Z,99763.09
2022-11-16T06:38:40.959Z,99754.25
2022-11-16T06:41:07.378Z,99765.00
2022-11-16T06:43:33.751Z,99760.84
2022-11-16T06:46:00.170Z,99758.03
2022-11-16T06:48:26.667Z,99761.56
2022-11-16T06:50:53.498Z,99760.09
2022-11-16T06:53:21.636Z,99759.47
2022-11-16T06:55:51.083Z,99765.19
2022-11-16T06:58:17.515Z,99764.25
2022-11-16T07:00:43.886Z,99768.88
2022-11-16T07:03:10.296Z,99769.94
2022-11-16T07:05:40.030Z,99776.31
2022-11-16T07:08:06.402Z,99783.66
2022-11-16T07:10:32.896Z,99783.84
2022-11-16T07:13:02.275Z,99787.53
2022-11-16T07:15:28.687Z,99786.78
2022-11-16T07:17:55.043Z,99790.56
2022-11-16T07:20:21.391Z,99794.22
2022-11-16T07:22:47.787Z,99791.66
2022-11-16T07:25:14.207Z,99796.94
2022-11-16T07:27:40.629Z,99796.81
2022-11-16T07:30:07.587Z,99802.81
2022-11-16T07:32:33.995Z,99799.38
2022-11-16T07:35:00.382Z,99799.16
2022-11-16T07:37:26.766Z,99805.41
2022-11-16T07:39:53.213Z,99799.81
2022-11-16T07:42:19.626Z,99805.28
2022-11-16T07:44:45.970Z,99807.97
2022-11-16T07:47:12.429Z,99809.72
2022-11-16T07:49:38.853Z,99816.16
2022-11-16T07:52:08.349Z,99817.00
2022-11-16T07:54:34.705Z,99818.22
2022-11-16T07:57:01.073Z,99836.09
2022-11-16T07:59:28.340Z,99824.59
2022-11-16T08:01:55.756Z,99836.44
2022-11-16T08:04:22.436Z,99838.50
2022-11-16T08:06:51.555Z,99845.81
2022-11-16T08:09:18.153Z,99845.06
2022-11-16T08:11:44.581Z,99846.03
2022-11-16T08:14:11.513Z,99854.09
2022-11-16T08:16:37.879Z,99854.97
2022-11-16T08:19:04.685Z,99859.50
2022-11-16T08:21:31.095Z,99868.56
2022-11-16T08:23:58.838Z,99861.22
2022-11-16T08:26:25.437Z,99862.06
2022-11-16T08:28:53.594Z,99858.44
2022-11-16T08:31:22.468Z,99853.91
2022-11-16T08:33:50.093Z,99857.34
2022-11-16T08:36:19.115Z,99862.63
2022-11-16T08:38:47.338Z,99857.09
2022-11-16T08:41:14.198Z,99856.88
2022-11-16T08:43:40.999Z,99864.88
2022-11-16T08:46:09.169Z,99865.63
2022-11-16T08:48:36.507Z,99860.09
2022-11-16T08:51:17.859Z,99861.63
2022-11-16T08:53:45.364Z,99857.72
2022-11-16T08:56:13.594Z,99853.59
2022-11-16T08:58:43.479Z,99853.38
2022-11-16T09:01:13.763Z,99856.56
2022-11-16T09:03:41.202Z,99868.03
2022-11-16T09:06:08.980Z,99860.22
2022-11-16T09:08:37.436Z,99864.56
2022-11-16T09:11:05.932Z,99857.72
2022-11-16T09:13:32.716Z,99861.03
2022-11-16T09:16:00.112Z,99857.78
2022-11-16T09:18:27.629Z,99854.88
2022-11-16T09:20:55.078Z,99850.34
2022-11-16T09:23:25.263Z,99852.00
2022-11-16T09:25:52.019Z,99853.75
2022-11-16T09:28:19.150Z,99846.63
2022-11-16T09:30:47.281Z,99844.97
2022-11-16T09:33:13.844Z,99848.22
2022-11-16T09:35:40.398Z,99843.56
2022-11-16T09:38:06.897Z,99838.53
2022-11-16T09:40:39.103Z,99832.03
2022-11-16T09:43:33.637Z,99850.16
2022-11-16T09:46:26.431Z,99851.06
2022-11-16T09:48:56.304Z,99856.31
2022-11-16T09:51:24.952Z,99858.94
2022-11-16T09:54:01.701Z,99862.72
2022-11-16T09:56:31.158Z,99873.03
2022-11-16T09:59:03.972Z,99867.38
2022-11-16T10:01:41.136Z,99868.84
2022-11-16T10:04:13.279Z,99878.63
2022-11-16T10:06:49.478Z,99881.81
2022-11-16T10:09:16.240Z,99871.78
2022-11-16T10:12:10.455Z,99883.34
2022-11-16T10:14:45.898Z,99876.94
2022-11-16T10:17:34.729Z,99870.03
2022-11-16T10:20:30.690Z,99877.69
2022-11-16T10:23:10.058Z,99880.63
2022-11-16T10:25:43.670Z,99869.72
2022-11-16T10:28:26.364Z,99876.47
2022-11-16T10:31:23.276Z,99875.75
2022-11-16T10:33:54.433Z,99869.13
2022-11-16T10:36:26.919Z,99868.00
2022-11-16T10:38:56.752Z,99865.91
2022-11-16T10:41:30.030Z,99870.69
2022-11-16T10:43:59.075Z,99876.22
2022-11-16T10:46:33.563Z,99877.69
2022-11-16T10:49:11.459Z,99879.41
2022-11-16T10:51:38.076Z,99879.91
2022-11-16T10:54:18.200Z,99886.16
2022-11-16T10:56:48.291Z,99882.59
2022-11-16T10:59:18.789Z,99883.59
2022-11-16T11:01:49.961Z,99892.91
2022-11-16T11:04:17.828Z,99891.31
2022-11-16T11:06:45.868Z,99889.75
2022-11-16T11:09:23.273Z,99887.50
2022-11-16T11:12:37.205Z,99875.97
2022-11-16T11:15:13.297Z,99874.75
2022-11-16T11:17:43.617Z,99882.25
2022-11-16T11:20:15.996Z,99880.28
2022-11-16T11:22:52.555Z,99875.75
2022-11-16T11:25:28.388Z,99885.03
2022-11-16T11:28:19.645Z,99880.66
2022-11-16T11:31:22.577Z,99867.13
2022-11-16T11:33:52.281Z,99864.94
2022-11-16T11:36:22.556Z,99857.78
2022-11-16T11:39:05.733Z,99860.16
2022-11-16T11:41:40.948Z,99851.38
2022-11-16T11:44:13.264Z,99855.47
2022-11-16T11:49:38.335Z,99854.16
2022-11-16T11:52:18.436Z,99864.25
2022-11-16T11:54:47.740Z,99862.13
2022-11-16T11:57:22.968Z,99861.97
2022-11-16T11:59:52.929Z,99872.75
2022-11-16T12:02:28.641Z,99866.53
2022-11-16T12:05:13.621Z,99863.97
2022-11-16T12:07:59.878Z,99854.06
2022-11-16T12:10:29.257Z,99853.09
2022-11-16T12:13:28.554Z,99868.66
2022-11-16T12:16:35.219Z,99863.16
2022-11-16T12:19:36.872Z,99870.91
2022-11-16T12:22:17.803Z,99857.78
2022-11-16T12:25:08.781Z,99870.00
2022-11-16T12:27:56.648Z,99858.16
2022-11-16T12:30:24.031Z,99853.50
2022-11-16T12:33:12.079Z,99843.28
2022-11-16T12:35:47.890Z,99840.66
2022-11-16T12:38:33.445Z,99855.91
2022-11-16T12:41:19.780Z,99857.88
2022-11-16T12:43:55.912Z,99858.72
2022-11-16T12:46:32.718Z,99870.06
2022-11-16T12:49:24.122Z,99865.16
2022-11-16T12:52:24.936Z,99854.59
2022-11-16T12:55:28.507Z,99856.03
2022-11-16T12:58:24.467Z,99856.28
2022-11-16T13:01:10.900Z,99843.94
2022-11-16T13:03:52.495Z,99846.03
2022-11-16T13:06:30.948Z,99840.66
2022-11-16T13:09:08.064Z,99830.91
2022-11-16T13:11:39.675Z,99831.06
2022-11-16T13:14:13.936Z,99829.56
2022-11-16T13:16:41.518Z,99828.97
2022-11-16T13:19:13.364Z,99829.19
2022-11-16T13:21:47.728Z,99835.72
2022-11-16T13:24:34.533Z,99834.63
2022-11-16T13:27:12.903Z,99812.28
2022-11-16T13:30:03.449Z,99818.03
2022-11-16T13:32:32.800Z,99820.75
2022-11-16T13:35:03.334Z,99818.03
2022-11-16T13:37:38.608Z,99822.72
2022-11-16T13:40:05.007Z,99821.25
2022-11-16T13:42:34.301Z,99830.09
2022-11-16T13:45:15.796Z,99823.56
2022-11-16T13:47:50.617Z,99825.41
2022-11-16T13:50:20.474Z,99815.59
2022-11-16T13:55:48.089Z,99809.00
2022-11-16T13:58:21.432Z,99798.91
2022-11-16T14:01:14.443Z,99797.31
2022-11-16T14:03:47.982Z,99802.59
2022-11-16T14:06:23.358Z,99793.41
2022-11-16T14:08:59.916Z,99797.81
2022-11-16T14:11:39.818Z,99797.47
2022-11-16T14:14:11.312Z,99802.50
2022-11-16T14:16:44.262Z,99805.53
2022-11-16T14:19:45.146Z,99799.03
2022-11-16T14:23:07.367Z,99790.34
2022-11-16T14:25:40.658Z,99797.69
2022-11-16T14:28:37.621Z,99783.34
2022-11-16T14:31:19.989Z,99782.13
2022-11-16T14:33:51.520Z,99780.16
2022-11-16T14:36:31.661Z,99782.47
2022-11-16T14:39:15.151Z,99772.63
2022-11-16T14:41:45.023Z,99775.84
2022-11-16T14:44:12.257Z,99779.03
2022-11-16T14:46:38.898Z,99785.88
2022-11-16T14:49:13.325Z,99782.31
2022-11-16T14:51:47.286Z,99791.50
2022-11-16T14:54:41.261Z,99794.63
2022-11-16T14:57:17.720Z,99792.91
2022-11-16T14:59:44.139Z,99788.88
2022-11-16T15:02:22.963Z,99797.19
2022-11-16T15:04:52.530Z,99799.50
2022-11-16T15:07:22.788Z,99793.78
2022-11-16T15:09:52.449Z,99772.41
2022-11-16T15:12:41.501Z,99762.38
2022-11-16T15:15:28.284Z,99751.44
2022-11-16T15:18:00.608Z,99738.94
2022-11-16T15:20:29.177Z,99738.91
2022-11-16T15:22:58.113Z,99732.25
2022-11-16T15:25:27.461Z,99730.41
2022-11-16T15:27:55.684Z,99727.19
2022-11-16T15:30:32.509Z,99737.22
2022-11-16T15:32:59.077Z,99738.63
2022-11-16T15:35:33.103Z,99741.53
2022-11-16T15:38:15.834Z,99745.13
2022-11-16T15:41:03.668Z,99740.97
2022-11-16T15:43:35.936Z,99735.38
2022-11-16T15:46:08.323Z,99723.56
2022-11-16T15:48:38.154Z,99728.31
2022-11-16T15:51:05.145Z,99718.41
2022-11-16T15:53:45.724Z,99699.16
2022-11-16T15:56:27.185Z,99706.44
2022-11-16T15:58:55.325Z,99704.09
2022-11-16T16:01:22.486Z,99696.75
2022-11-16T16:03:57.688Z,99697.34
2022-11-16T16:06:45.307Z,99707.66
2022-11-16T16:09:20.947Z,99696.63
2022-11-16T16:11:47.447Z,99698.66
2022-11-16T16:14:24.216Z,99691.47
2022-11-16T16:16:53.446Z,99697.31
2022-11-16T16:19:47.412Z,99686.56
2022-11-16T16:22:27.834Z,99692.59
2022-11-16T16:24:54.646Z,99688.16
2022-11-16T16:27:26.460Z,99687.66
2022-11-16T16:29:57.912Z,99687.00
2022-11-16T16:32:30.004Z,99688.97
2022-11-16T16:35:04.417Z,99695.53
2022-11-16T16:37:33.051Z,99697.56
2022-11-16T16:40:00.229Z,99693.94
2022-11-16T16:42:27.314Z,99687.56
2022-11-16T16:44:53.773Z,99677.56
2022-11-16T16:47:23.404Z,99673.16
2022-11-16T16:49:49.803Z,99672.41
2022-11-16T16:52:16.854Z,99667.16
2022-11-16T16:54:43.481Z,99665.72
2022-11-16T16:57:17.606Z,99661.84
2022-11-16T16:59:45.274Z,99669.59
2022-11-16T17:02:12.438Z,99675.25
2022-11-16T17:04:38.969Z,99674.06
2022-11-16T17:07:05.599Z,99664.97
2022-11-16T17:09:31.990Z,99665.03
2022-11-16T17:11:58.359Z,99670.06
2022-11-16T17:14:24.692Z,99670.47
2022-11-16T17:16:51.595Z,99668.81
2022-11-16T17:19:18.451Z,99662.72
2022-11-16T17:21:44.838Z,99665.81
2022-11-16T17:24:11.667Z,99660.19
2022-11-16T17:26:38.141Z,99663.34
2022-11-16T17:29:04.551Z,99665.19
2022-11-16T17:31:30.953Z,99669.72
2022-11-16T17:34:00.350Z,99667.03
2022-11-16T17:36:26.691Z,99669.94
2022-11-16T17:38:53.050Z,99671.03
2022-11-16T17:41:23.837Z,99668.47
2022-11-16T17:43:53.013Z,99667.19
2022-11-16T17:46:21.954Z,99662.28
2022-11-16T17:48:49.056Z,99659.19
2022-11-16T17:51:20.755Z,99665.44
2022-11-16T17:53:47.201Z,99666.63
2022-11-16T17:56:16.816Z,99657.19
2022-11-16T17:58:44.999Z,99654.84
2022-11-16T18:01:12.565Z,99647.97
2022-11-16T18:03:39.367Z,99644.31
2022-11-16T18:06:14.068Z,99644.56
2022-11-16T18:08:41.596Z,99634.00
2022-11-16T18:11:10.800Z,99630.28
2022-11-16T18:13:37.476Z,99629.66
2022-11-16T18:16:16.036Z,99631.47
2022-11-16T18:18:42.936Z,99626.66
2022-11-16T18:21:11.369Z,99631.09
2022-11-16T18:23:39.985Z,99623.44
2022-11-16T18:26:11.846Z,99614.53
2022-11-16T18:28:38.297Z,99611.63
2022-11-16T18:31:12.744Z,99613.78
2022-11-16T18:33:39.708Z,99606.25
2022-11-16T18:36:07.150Z,99619.34
2022-11-16T18:38:33.984Z,99622.50
2022-11-16T18:41:07.516Z,99617.97
2022-11-16T18:43:34.959Z,99614.53
2022-11-16T18:46:01.620Z,99611.34
2022-11-16T18:48:28.169Z,99605.72
2022-11-16T18:51:01.763Z,99606.56
2022-11-16T18:53:29.486Z,99601.72
2022-11-16T18:55:58.011Z,99594.50
2022-11-16T18:58:49.186Z,99597.19
2022-11-16T19:01:14.688Z,99593.66
2022-11-16T19:03:41.546Z,99585.69
2022-11-16T19:06:09.716Z,99574.72
2022-11-16T19:08:37.968Z,99572.53
2022-11-16T19:11:07.140Z,99563.25
2022-11-16T19:13:34.114Z,99565.22
2022-11-16T19:16:00.794Z,99559.81
2022-11-16T19:18:27.840Z,99549.06
2022-11-16T19:21:12.317Z,99542.84
2022-11-16T19:23:43.524Z,99551.03
2022-11-16T19:26:12.604Z,99538.56
2022-11-16T19:28:40.827Z,99531.59
2022-11-16T19:31:17.789Z,99530.38
2022-11-16T19:33:44.537Z,99520.22
2022-11-16T19:36:12.253Z,99509.09
2022-11-16T19:38:39.069Z,99510.47
2022-11-16T19:41:06.715Z,99510.00
2022-11-16T19:43:34.121Z,99499.97
2022-11-16T19:46:18.247Z,99490.94
2022-11-16T19:48:46.917Z,99483.63
2022-11-16T19:51:16.236Z,99475.81
2022-11-16T19:53:42.958Z,99467.28
2022-11-16T19:56:14.148Z,99464.31
2022-11-16T19:58:41.338Z,99466.41
2022-11-16T20:01:13.703Z,99459.09
2022-11-16T20:03:41.818Z,99454.22
2022-11-16T20:06:16.642Z,99443.81
2022-11-16T20:08:47.557Z,99435.47
2022-11-16T20:11:15.438Z,99439.16
2022-11-16T20:13:42.682Z,99452.13
2022-11-16T20:16:10.975Z,99434.88
2022-11-16T20:18:38.642Z,99427.19
2022-11-16T20:21:07.740Z,99426.09
2022-11-16T20:23:35.097Z,99420.94
2022-11-16T20:26:10.100Z,99416.53
2022-11-16T20:28:38.084Z,99411.38
2022-11-16T20:31:08.752Z,99404.19
2022-11-16T20:33:35.982Z,99403.09
2022-11-16T20:36:10.378Z,99380.56
2022-11-16T20:38:38.610Z,99382.41
2022-11-16T20:41:09.121Z,99373.38
2022-11-16T20:43:35.875Z,99371.41
2022-11-16T20:46:02.479Z,99373.50
2022-11-16T20:48:28.815Z,99374.06
2022-11-16T20:50:55.156Z,99377.38
2022-11-16T20:53:22.233Z,99363.81
2022-11-16T20:55:49.971Z,99361.63
2022-11-16T20:58:22.416Z,99363.31
2022-11-16T21:00:49.668Z,99352.31
2022-11-16T21:03:16.920Z,99364.03
2022-11-16T21:05:44.935Z,99346.78
2022-11-16T21:08:12.267Z,99342.88
2022-11-16T21:10:39.675Z,99340.91
2022-11-16T21:13:25.680Z,99322.78
2022-11-16T21:15:58.701Z,99307.50
2022-11-16T21:18:30.574Z,99309.19
2022-11-16T21:21:01.490Z,99310.91
2022-11-16T21:23:29.689Z,99298.19
2022-11-16T21:26:01.792Z,99302.84
2022-11-16T21:28:28.147Z,99301.00
2022-11-16T21:30:56.538Z,99297.31
2022-11-16T21:33:23.033Z,99300.03
2022-11-16T21:35:49.468Z,99296.97
2022-11-16T21:38:15.829Z,99288.03
2022-11-16T21:40:44.065Z,99279.84
2022-11-16T21:43:10.428Z,99277.16
2022-11-16T21:45:36.775Z,99266.38
2022-11-16T21:48:03.225Z,99263.69
2022-11-16T21:50:32.214Z,99259.50
2022-11-16T21:53:00.380Z,99252.31
2022-11-16T21:55:27.035Z,99238.69
2022-11-16T21:57:53.407Z,99230.50
2022-11-16T22:00:20.334Z,99226.22
2022-11-16T22:02:46.693Z,99216.06
2022-11-16T22:05:31.652Z,99223.13
2022-11-16T22:08:03.943Z,99221.31
2022-11-16T22:10:30.297Z,99203.91
2022-11-16T22:12:56.643Z,99190.69
2022-11-16T22:15:22.981Z,99181.50
2022-11-16T22:17:49.369Z,99179.53
2022-11-16T22:20:16.116Z,99180.00
2022-11-16T22:22:42.465Z,99165.88
2022-11-16T22:25:09.572Z,99153.66
2022-11-16T22:27:58.474Z,99144.38
2022-11-16T22:30:22.482Z,99137.31
2022-11-16T22:32:48.816Z,99129.94
2022-11-16T22:35:15.245Z,99121.16
2022-11-16T22:37:42.185Z,99111.63
2022-11-16T22:40:13.602Z,99111.47
2022-11-16T22:42:42.900Z,99098.16
2022-11-16T22:45:09.652Z,99089.38
2022-11-16T22:47:36.621Z,99092.78
2022-11-16T22:50:03.525Z,99088.34
2022-11-16T22:52:30.015Z,99083.09
2022-11-16T22:54:56.332Z,99070.03
2022-11-16T22:57:22.680Z,99065.03
2022-11-16T22:59:49.079Z,99062.59
2022-11-16T23:02:15.472Z,99048.16
2022-11-16T23:04:41.829Z,99041.06
2022-11-16T23:07:08.321Z,99037.38
2022-11-16T23:09:34.716Z,99027.47
2022-11-16T23:12:19.541Z,99018.38
2022-11-16T23:15:04.334Z,99013.88
2022-11-16T23:17:30.728Z,99003.34
2022-11-16T23:20:17.744Z,99005.47
2022-11-16T23:23:02.886Z,99000.34
2022-11-16T23:25:47.706Z,98982.06
2022-11-16T23:28:15.728Z,98981.59
2022-11-16T23:30:42.172Z,98980.28
2022-11-16T23:33:09.995Z,98970.50
2022-11-16T23:35:36.535Z,98955.75
2022-11-16T23:38:05.437Z,98968.72
2022-11-16T23:40:37.049Z,98953.00
2022-11-16T23:43:22.285Z,98945.06
2022-11-16T23:45:49.377Z,98938.22
2022-11-16T23:48:17.078Z,98933.09
2022-11-16T23:50:45.152Z,98933.63
2022-11-16T23:53:12.150Z,98918.03
2022-11-16T23:55:39.429Z,98921.97
2022-11-16T23:58:07.472Z,98907.06
